Valor — WDD8691 — position and weather

sailwx.info

Track history (hours):
 
Tides and Currents Weather Stations Pressure Air Temp Water Temp Dewpoint Dewpoint Depression Visibility Wind Speed Wind Dir Waves Ship Positions

Valor

Owner: Crowley Marine Services, Seattle, WA. More information available from US FCC via Universal Licensing System and Coast Guard Vessel Documentation Center.

Last reported at 2015-Aug-04 11:33 UTC. Time now 2015-Aug-04 11:42 UTC.
Position N 37°48' W 122°24'.

Length 8 m; draft 5.5 m.

Type: Tug. MMSI: 367301480.

Date/timePositionNaut miles runAvg speedWind from/ knotsBaromVisibWave heightAir tempDewpointWater temp
2015-Aug-04 11:33N 37°48' W 122°24'6 5.8
2015-Aug-04 10:33N 37°49' W 122°31'4 4.3
2015-Aug-04 09:34N 37°51' W 122°26'5 4.9
2015-Aug-04 08:33N 37°55' W 122°25'0 0.4
2015-Aug-04 07:33N 37°55' W 122°25'0 0.0
2015-Aug-04 06:33N 37°55' W 122°25'0 0.0
2015-Aug-04 05:33N 37°55' W 122°25'0 0.0
2015-Aug-04 04:33N 37°55' W 122°25'0 0.0
2015-Aug-04 03:33N 37°55' W 122°25'4 4.3
2015-Aug-04 02:33N 37°51' W 122°24'4 3.6
2015-Aug-04 01:33N 37°49' W 122°20'1 1.3
2015-Aug-04 00:33N 37°49' W 122°19'0 0.0
2015-Aug-03 23:33N 37°49' W 122°19'0 0.0
2015-Aug-03 22:33N 37°49' W 122°19'0 0.0
2015-Aug-03 21:33N 37°49' W 122°19'0 0.0
2015-Aug-03 20:34N 37°49' W 122°19'2 1.6
2015-Aug-03 19:33N 37°49' W 122°20'8 7.8
2015-Aug-03 18:33N 37°55' W 122°25'1 0.7
2015-Aug-03 17:33N 37°54' W 122°25'6 6.4
2015-Aug-03 16:33N 37°48' W 122°24'0 0.0
2015-Aug-03 15:33N 37°48' W 122°24'0 0.0
2015-Aug-03 14:33N 37°48' W 122°24'0 0.0
2015-Aug-03 13:33N 37°48' W 122°24'0 0.0
2015-Aug-03 12:33N 37°48' W 122°24'0 0.3
2015-Aug-03 11:33N 37°48' W 122°24'6 5.7
2015-Aug-03 10:33N 37°49' W 122°31'6 5.8
2015-Aug-03 09:33N 37°49' W 122°24'5 5.0
2015-Aug-03 08:34N 37°44' W 122°21'8 7.9
2015-Aug-03 07:33N 37°52' W 122°24'3 3.4
2015-Aug-03 06:34N 37°55' W 122°22'0 0.5
2015-Aug-03 05:33N 37°54' W 122°22'3 2.8
2015-Aug-03 04:33N 37°54' W 122°25'1 1.5
2015-Aug-03 03:33N 37°55' W 122°24'0 0.1
2015-Aug-03 02:33N 37°55' W 122°25'0 0.0
2015-Aug-03 01:33N 37°55' W 122°25'0 0.0
2015-Aug-03 00:33N 37°55' W 122°25'4 4.0
2015-Aug-02 23:33N 37°59' W 122°25'9 8.3
2015-Aug-02 22:32N 38°03' W 122°16'0 0.1
2015-Aug-02 21:33N 38°04' W 122°16'8 7.6
2015-Aug-02 20:33N 38°00' W 122°25'1010.2
2015-Aug-02 19:33N 37°50' W 122°24'7 7.1
2015-Aug-02 18:33N 37°44' W 122°21'4 4.5
2015-Aug-02 17:33N 37°48' W 122°21'2 2.2
2015-Aug-02 16:33N 37°49' W 122°19'0 0.0
2015-Aug-02 15:33N 37°49' W 122°19'1 1.1
2015-Aug-02 14:34N 37°49' W 122°20'2 1.7
2015-Aug-02 13:33N 37°48' W 122°22'1 1.5
2015-Aug-02 12:33N 37°49' W 122°20'0 0.2
2015-Aug-02 11:34N 37°49' W 122°20'3 2.9
2015-Aug-02 10:33N 37°46' W 122°22'7 6.6
2015-Aug-02 09:34N 37°49' W 122°29'1 0.8
2015-Aug-02 08:33N 37°48' W 122°30'1 1.5
2015-Aug-02 07:33N 37°49' W 122°31'4 3.8
2015-Aug-02 06:33N 37°51' W 122°27'6 6.0
2015-Aug-02 05:33N 37°57' W 122°27'8 8.0
2015-Aug-02 04:32N 38°03' W 122°20'9 8.6
2015-Aug-02 03:31N 38°02' W 122°09'2 0.0
2015-Jul-31 18:33N 38°03' W 122°11'10 7.7
2015-Jul-31 17:15N 38°01' W 122°23'710.2
2015-Jul-31 16:33N 37°55' W 122°27'9 9.0
2015-Jul-31 15:34N 37°47' W 122°22'3 3.4
2015-Jul-31 14:33N 37°44' W 122°20'5 4.9
2015-Jul-31 13:34N 37°49' W 122°20'0 0.0
2015-Jul-31 12:34N 37°49' W 122°20'0 0.0
2015-Jul-31 11:34N 37°49' W 122°20'0 0.0
2015-Jul-31 10:33N 37°49' W 122°20'0 0.0
2015-Jul-31 09:34N 37°49' W 122°20'0 0.3
2015-Jul-31 08:34N 37°49' W 122°20'1 1.5
2015-Jul-31 07:34N 37°49' W 122°21'7 6.7
2015-Jul-31 06:33N 37°55' W 122°25'1 1.0
2015-Jul-31 05:33N 37°54' W 122°25'3 2.9
2015-Jul-31 04:34N 37°55' W 122°22'0 0.0
2015-Jul-31 03:33N 37°55' W 122°22'0 0.0
2015-Jul-31 02:33N 37°55' W 122°22'0 0.0
2015-Jul-31 01:33N 37°55' W 122°22'0 0.0
2015-Jul-31 00:34N 37°55' W 122°22'0 0.0
2015-Jul-30 23:34N 37°55' W 122°22'0 0.0
2015-Jul-30 22:33N 37°55' W 122°22'0 0.0
2015-Jul-30 21:33N 37°55' W 122°22'2 2.1
2015-Jul-30 20:33N 37°55' W 122°24'2 2.1
2015-Jul-30 19:33N 37°55' W 122°22'0 0.1
2015-Jul-30 18:33N 37°55' W 122°22'0 0.0
2015-Jul-30 17:34N 37°55' W 122°22'4 4.2
2015-Jul-30 16:34N 37°51' W 122°23'5 5.5
2015-Jul-30 15:33N 37°48' W 122°17'1 0.9
2015-Jul-30 14:33N 37°48' W 122°19'0 0.2
2015-Jul-30 13:33N 37°48' W 122°18'0 0.2
2015-Jul-30 12:34N 37°48' W 122°19'0 0.4
2015-Jul-30 11:34N 37°48' W 122°19'0 0.1
2015-Jul-30 10:34N 37°48' W 122°19'2 1.6
2015-Jul-30 09:34N 37°49' W 122°19'0 0.0
2015-Jul-30 08:34N 37°49' W 122°19'0 0.0
2015-Jul-30 07:34N 37°49' W 122°19'0 0.0
2015-Jul-30 06:33N 37°49' W 122°19'0 0.0
2015-Jul-30 05:34N 37°49' W 122°19'0 0.0
2015-Jul-30 04:34N 37°49' W 122°19'0 0.0
2015-Jul-30 03:34N 37°49' W 122°19'0 0.0
2015-Jul-30 02:34N 37°49' W 122°19'2 1.6
2015-Jul-30 01:34N 37°48' W 122°20'2 1.6
2015-Jul-30 00:34N 37°48' W 122°19'1 1.0
2015-Jul-29 23:33N 37°48' W 122°20'1 0.5
2015-Jul-29 22:33N 37°48' W 122°19'2 1.6
2015-Jul-29 21:34N 37°49' W 122°19'0 0.1
2015-Jul-29 20:34N 37°49' W 122°19'0 0.0
2015-Jul-29 19:33N 37°49' W 122°19'0 0.0
2015-Jul-29 18:34N 37°49' W 122°19'0 0.0
2015-Jul-29 17:34N 37°49' W 122°19'0 0.0
2015-Jul-29 16:32N 37°49' W 122°19'0 0.0
2015-Jul-29 15:34N 37°49' W 122°19'0 0.0
2015-Jul-29 14:34N 37°49' W 122°19'1 1.0
2015-Jul-29 13:34N 37°49' W 122°20'0 0.3
2015-Jul-29 12:34N 37°49' W 122°19'0 0.3
2015-Jul-29 11:34N 37°49' W 122°19'3 2.6
2015-Jul-29 10:34N 37°48' W 122°22'7 6.8
2015-Jul-29 09:33N 37°49' W 122°31'6 5.7
2015-Jul-29 08:33N 37°53' W 122°26'1110.9
2015-Jul-29 07:33N 38°03' W 122°20'9 8.8
2015-Jul-29 06:34N 38°02' W 122°09'12 1.0
2015-Jul-28 18:14N 38°03' W 121°53'8 8.8
2015-Jul-28 17:21N 38°04' W 122°03'4 0.5
2015-Jul-28 08:10N 38°02' W 122°08'0 0.4
2015-Jul-28 07:33N 38°02' W 122°07'1 0.2
2015-Jul-28 01:33N 38°02' W 122°09'3 0.1
2015-Jul-27 03:24N 38°04' W 122°13'2 2.8
2015-Jul-27 02:33N 38°03' W 122°16'5 4.7
2015-Jul-27 01:33N 38°02' W 122°21'10 9.9
2015-Jul-27 00:34N 37°53' W 122°25'6 5.5
2015-Jul-26 23:33N 37°49' W 122°20'2 2.4
2015-Jul-26 22:33N 37°47' W 122°22'1 0.8
2015-Jul-26 21:34N 37°48' W 122°22'6 5.6
2015-Jul-26 20:33N 37°53' W 122°25'10 9.5
2015-Jul-26 19:31N 38°02' W 122°21'10 0.9
2015-Jul-26 08:11N 38°02' W 122°08'0 0.5
2015-Jul-26 07:18N 38°02' W 122°08'5 6.1
2015-Jul-26 06:33N 38°04' W 122°14'8 8.1
2015-Jul-26 05:33N 38°01' W 122°23'9 9.5
2015-Jul-26 04:33N 37°52' W 122°25'6 5.8
2015-Jul-26 03:34N 37°49' W 122°31'4 4.1
2015-Jul-26 02:33N 37°49' W 122°26'4 4.5
2015-Jul-26 01:34N 37°49' W 122°20'0 0.2
2015-Jul-26 00:33N 37°49' W 122°20'1 0.7
2015-Jul-25 23:34N 37°49' W 122°20'1 1.0
2015-Jul-25 22:34N 37°49' W 122°19'3 2.9
2015-Jul-25 21:33N 37°48' W 122°22'7 7.1
2015-Jul-25 20:33N 37°49' W 122°31'6 5.6
2015-Jul-25 19:34N 37°53' W 122°25'9 9.1
2015-Jul-25 18:33N 38°02' W 122°23'7 6.8
2015-Jul-25 17:32N 38°04' W 122°15'0 0.1
2015-Jul-25 16:05N 38°03' W 122°15'3 2.0
2015-Jul-25 14:29N 38°03' W 122°19'9 9.6
2015-Jul-25 13:33N 37°56' W 122°26'1 1.2
2015-Jul-25 12:33N 37°55' W 122°25'  
Track history (hours):
 
Tides and Currents Weather Stations Pressure Air Temp Water Temp Dewpoint Dewpoint Depression Visibility Wind Speed Wind Dir Waves Ship Positions

Valor

Owner: Crowley Marine Services, Seattle, WA. More information available from US FCC via Universal Licensing System and Coast Guard Vessel Documentation Center.

Last reported at 2015-Aug-04 11:33 UTC. Time now 2015-Aug-04 11:42 UTC.
Position N 37°48' W 122°24'.

Length 8 m; draft 5.5 m.

Type: Tug. MMSI: 367301480.

Date/timePositionNaut miles runAvg speedWind from/ knotsBaromVisibWave heightAir tempDewpointWater temp
2015-Aug-04 11:33N 37°48' W 122°24'6 5.8
2015-Aug-04 10:33N 37°49' W 122°31'4 4.3
2015-Aug-04 09:34N 37°51' W 122°26'5 4.9
2015-Aug-04 08:33N 37°55' W 122°25'0 0.4
2015-Aug-04 07:33N 37°55' W 122°25'0 0.0
2015-Aug-04 06:33N 37°55' W 122°25'0 0.0
2015-Aug-04 05:33N 37°55' W 122°25'0 0.0
2015-Aug-04 04:33N 37°55' W 122°25'0 0.0
2015-Aug-04 03:33N 37°55' W 122°25'4 4.3
2015-Aug-04 02:33N 37°51' W 122°24'4 3.6
2015-Aug-04 01:33N 37°49' W 122°20'1 1.3
2015-Aug-04 00:33N 37°49' W 122°19'0 0.0
2015-Aug-03 23:33N 37°49' W 122°19'0 0.0
2015-Aug-03 22:33N 37°49' W 122°19'0 0.0
2015-Aug-03 21:33N 37°49' W 122°19'0 0.0
2015-Aug-03 20:34N 37°49' W 122°19'2 1.6
2015-Aug-03 19:33N 37°49' W 122°20'8 7.8
2015-Aug-03 18:33N 37°55' W 122°25'1 0.7
2015-Aug-03 17:33N 37°54' W 122°25'6 6.4
2015-Aug-03 16:33N 37°48' W 122°24'0 0.0
2015-Aug-03 15:33N 37°48' W 122°24'0 0.0
2015-Aug-03 14:33N 37°48' W 122°24'0 0.0
2015-Aug-03 13:33N 37°48' W 122°24'0 0.0
2015-Aug-03 12:33N 37°48' W 122°24'0 0.3
2015-Aug-03 11:33N 37°48' W 122°24'6 5.7
2015-Aug-03 10:33N 37°49' W 122°31'6 5.8
2015-Aug-03 09:33N 37°49' W 122°24'5 5.0
2015-Aug-03 08:34N 37°44' W 122°21'8 7.9
2015-Aug-03 07:33N 37°52' W 122°24'3 3.4
2015-Aug-03 06:34N 37°55' W 122°22'0 0.5
2015-Aug-03 05:33N 37°54' W 122°22'3 2.8
2015-Aug-03 04:33N 37°54' W 122°25'1 1.5
2015-Aug-03 03:33N 37°55' W 122°24'0 0.1
2015-Aug-03 02:33N 37°55' W 122°25'0 0.0
2015-Aug-03 01:33N 37°55' W 122°25'0 0.0
2015-Aug-03 00:33N 37°55' W 122°25'4 4.0
2015-Aug-02 23:33N 37°59' W 122°25'9 8.3
2015-Aug-02 22:32N 38°03' W 122°16'0 0.1
2015-Aug-02 21:33N 38°04' W 122°16'8 7.6
2015-Aug-02 20:33N 38°00' W 122°25'1010.2
2015-Aug-02 19:33N 37°50' W 122°24'7 7.1
2015-Aug-02 18:33N 37°44' W 122°21'4 4.5
2015-Aug-02 17:33N 37°48' W 122°21'2 2.2
2015-Aug-02 16:33N 37°49' W 122°19'0 0.0
2015-Aug-02 15:33N 37°49' W 122°19'1 1.1
2015-Aug-02 14:34N 37°49' W 122°20'2 1.7
2015-Aug-02 13:33N 37°48' W 122°22'1 1.5
2015-Aug-02 12:33N 37°49' W 122°20'0 0.2
2015-Aug-02 11:34N 37°49' W 122°20'3 2.9
2015-Aug-02 10:33N 37°46' W 122°22'7 6.6
2015-Aug-02 09:34N 37°49' W 122°29'1 0.8
2015-Aug-02 08:33N 37°48' W 122°30'1 1.5
2015-Aug-02 07:33N 37°49' W 122°31'4 3.8
2015-Aug-02 06:33N 37°51' W 122°27'6 6.0
2015-Aug-02 05:33N 37°57' W 122°27'8 8.0
2015-Aug-02 04:32N 38°03' W 122°20'9 8.6
2015-Aug-02 03:31N 38°02' W 122°09'2 0.0
2015-Jul-31 18:33N 38°03' W 122°11'10 7.7
2015-Jul-31 17:15N 38°01' W 122°23'710.2
2015-Jul-31 16:33N 37°55' W 122°27'9 9.0
2015-Jul-31 15:34N 37°47' W 122°22'3 3.4
2015-Jul-31 14:33N 37°44' W 122°20'5 4.9
2015-Jul-31 13:34N 37°49' W 122°20'0 0.0
2015-Jul-31 12:34N 37°49' W 122°20'0 0.0
2015-Jul-31 11:34N 37°49' W 122°20'0 0.0
2015-Jul-31 10:33N 37°49' W 122°20'0 0.0
2015-Jul-31 09:34N 37°49' W 122°20'0 0.3
2015-Jul-31 08:34N 37°49' W 122°20'1 1.5
2015-Jul-31 07:34N 37°49' W 122°21'7 6.7
2015-Jul-31 06:33N 37°55' W 122°25'1 1.0
2015-Jul-31 05:33N 37°54' W 122°25'3 2.9
2015-Jul-31 04:34N 37°55' W 122°22'0 0.0
2015-Jul-31 03:33N 37°55' W 122°22'0 0.0
2015-Jul-31 02:33N 37°55' W 122°22'0 0.0
2015-Jul-31 01:33N 37°55' W 122°22'0 0.0
2015-Jul-31 00:34N 37°55' W 122°22'0 0.0
2015-Jul-30 23:34N 37°55' W 122°22'0 0.0
2015-Jul-30 22:33N 37°55' W 122°22'0 0.0
2015-Jul-30 21:33N 37°55' W 122°22'2 2.1
2015-Jul-30 20:33N 37°55' W 122°24'2 2.1
2015-Jul-30 19:33N 37°55' W 122°22'0 0.1
2015-Jul-30 18:33N 37°55' W 122°22'0 0.0
2015-Jul-30 17:34N 37°55' W 122°22'4 4.2
2015-Jul-30 16:34N 37°51' W 122°23'5 5.5
2015-Jul-30 15:33N 37°48' W 122°17'1 0.9
2015-Jul-30 14:33N 37°48' W 122°19'0 0.2
2015-Jul-30 13:33N 37°48' W 122°18'0 0.2
2015-Jul-30 12:34N 37°48' W 122°19'0 0.4
2015-Jul-30 11:34N 37°48' W 122°19'0 0.1
2015-Jul-30 10:34N 37°48' W 122°19'2 1.6
2015-Jul-30 09:34N 37°49' W 122°19'0 0.0
2015-Jul-30 08:34N 37°49' W 122°19'0 0.0
2015-Jul-30 07:34N 37°49' W 122°19'0 0.0
2015-Jul-30 06:33N 37°49' W 122°19'0 0.0
2015-Jul-30 05:34N 37°49' W 122°19'0 0.0
2015-Jul-30 04:34N 37°49' W 122°19'0 0.0
2015-Jul-30 03:34N 37°49' W 122°19'0 0.0
2015-Jul-30 02:34N 37°49' W 122°19'2 1.6
2015-Jul-30 01:34N 37°48' W 122°20'2 1.6
2015-Jul-30 00:34N 37°48' W 122°19'1 1.0
2015-Jul-29 23:33N 37°48' W 122°20'1 0.5
2015-Jul-29 22:33N 37°48' W 122°19'2 1.6
2015-Jul-29 21:34N 37°49' W 122°19'0 0.1
2015-Jul-29 20:34N 37°49' W 122°19'0 0.0
2015-Jul-29 19:33N 37°49' W 122°19'0 0.0
2015-Jul-29 18:34N 37°49' W 122°19'0 0.0
2015-Jul-29 17:34N 37°49' W 122°19'0 0.0
2015-Jul-29 16:32N 37°49' W 122°19'0 0.0
2015-Jul-29 15:34N 37°49' W 122°19'0 0.0
2015-Jul-29 14:34N 37°49' W 122°19'1 1.0
2015-Jul-29 13:34N 37°49' W 122°20'0 0.3
2015-Jul-29 12:34N 37°49' W 122°19'0 0.3
2015-Jul-29 11:34N 37°49' W 122°19'3 2.6
2015-Jul-29 10:34N 37°48' W 122°22'7 6.8
2015-Jul-29 09:33N 37°49' W 122°31'6 5.7
2015-Jul-29 08:33N 37°53' W 122°26'1110.9
2015-Jul-29 07:33N 38°03' W 122°20'9 8.8
2015-Jul-29 06:34N 38°02' W 122°09'12 1.0
2015-Jul-28 18:14N 38°03' W 121°53'8 8.8
2015-Jul-28 17:21N 38°04' W 122°03'4 0.5
2015-Jul-28 08:10N 38°02' W 122°08'0 0.4
2015-Jul-28 07:33N 38°02' W 122°07'1 0.2
2015-Jul-28 01:33N 38°02' W 122°09'3 0.1
2015-Jul-27 03:24N 38°04' W 122°13'2 2.8
2015-Jul-27 02:33N 38°03' W 122°16'5 4.7
2015-Jul-27 01:33N 38°02' W 122°21'10 9.9
2015-Jul-27 00:34N 37°53' W 122°25'6 5.5
2015-Jul-26 23:33N 37°49' W 122°20'2 2.4
2015-Jul-26 22:33N 37°47' W 122°22'1 0.8
2015-Jul-26 21:34N 37°48' W 122°22'6 5.6
2015-Jul-26 20:33N 37°53' W 122°25'10 9.5
2015-Jul-26 19:31N 38°02' W 122°21'10 0.9
2015-Jul-26 08:11N 38°02' W 122°08'0 0.5
2015-Jul-26 07:18N 38°02' W 122°08'5 6.1
2015-Jul-26 06:33N 38°04' W 122°14'8 8.1
2015-Jul-26 05:33N 38°01' W 122°23'9 9.5
2015-Jul-26 04:33N 37°52' W 122°25'6 5.8
2015-Jul-26 03:34N 37°49' W 122°31'4 4.1
2015-Jul-26 02:33N 37°49' W 122°26'4 4.5
2015-Jul-26 01:34N 37°49' W 122°20'0 0.2
2015-Jul-26 00:33N 37°49' W 122°20'1 0.7
2015-Jul-25 23:34N 37°49' W 122°20'1 1.0
2015-Jul-25 22:34N 37°49' W 122°19'3 2.9
2015-Jul-25 21:33N 37°48' W 122°22'7 7.1
2015-Jul-25 20:33N 37°49' W 122°31'6 5.6
2015-Jul-25 19:34N 37°53' W 122°25'9 9.1
2015-Jul-25 18:33N 38°02' W 122°23'7 6.8
2015-Jul-25 17:32N 38°04' W 122°15'0 0.1
2015-Jul-25 16:05N 38°03' W 122°15'3 2.0
2015-Jul-25 14:29N 38°03' W 122°19'9 9.6
2015-Jul-25 13:33N 37°56' W 122°26'1 1.2
2015-Jul-25 12:33N 37°55' W 122°25'  

Dump ship's entire track history